createdAt,value
2022-10-19T00:02:13.553Z,151470.06
2022-10-19T00:04:41.327Z,151455.88
2022-10-19T00:07:09.041Z,151477.78
2022-10-19T00:09:36.778Z,151449.47
2022-10-19T00:12:06.213Z,151444.31
2022-10-19T00:14:33.926Z,151427.63
2022-10-19T00:17:01.730Z,151414.72
2022-10-19T00:19:29.708Z,151417.28
2022-10-19T00:21:57.458Z,151421.13
2022-10-19T00:24:25.355Z,151416.03
2022-10-19T00:26:53.104Z,151426.28
2022-10-19T00:29:22.204Z,151399.28
2022-10-19T00:31:50.648Z,151354.22
2022-10-19T00:34:18.727Z,151396.72
2022-10-19T00:36:46.581Z,151400.56
2022-10-19T00:39:16.339Z,151386.41
2022-10-19T00:41:45.937Z,151379.97
2022-10-19T00:44:50.867Z,151367.13
2022-10-19T00:47:24.443Z,151358.13
2022-10-19T00:49:53.332Z,151338.81
2022-10-19T00:52:23.104Z,151342.66
2022-10-19T00:54:53.691Z,151320.81
2022-10-19T00:57:22.094Z,151334.97
2022-10-19T00:59:50.707Z,151327.22
2022-10-19T01:02:19.787Z,151316.91
2022-10-19T01:04:51.751Z,151292.50
2022-10-19T01:07:20.309Z,151293.75
2022-10-19T01:09:48.006Z,151284.75
2022-10-19T01:12:32.425Z,151280.91
2022-10-19T01:15:12.888Z,151278.34
2022-10-19T01:17:51.920Z,151280.91
2022-10-19T01:20:50.799Z,151265.47
2022-10-19T01:23:54.186Z,151256.47
2022-10-19T01:26:42.129Z,151230.72
2022-10-19T01:29:18.494Z,151250.03
2022-10-19T01:31:52.060Z,151246.19
2022-10-19T01:34:26.645Z,151235.88
2022-10-19T01:37:01.807Z,151233.31
2022-10-19T01:39:36.382Z,151160.03
2022-10-19T01:42:11.092Z,151247.47
2022-10-19T01:44:44.774Z,151233.31
2022-10-19T01:47:19.896Z,151226.88
2022-10-19T01:49:52.144Z,151161.28
2022-10-19T01:52:22.914Z,151223.03
2022-10-19T01:54:52.916Z,151220.47
2022-10-19T01:57:27.527Z,151217.88
2022-10-19T01:59:56.809Z,151211.47
2022-10-19T02:02:28.089Z,151197.31
2022-10-19T02:04:58.699Z,151212.72
2022-10-19T02:07:27.025Z,151203.75
2022-10-19T02:09:54.714Z,151199.88
2022-10-19T02:12:23.684Z,151187.00
2022-10-19T02:14:57.580Z,151133.00
2022-10-19T02:17:29.965Z,151115.00
2022-10-19T02:19:59.105Z,151171.59
2022-10-19T02:22:26.750Z,151181.84
2022-10-19T02:24:54.588Z,151170.28
2022-10-19T02:27:22.873Z,151158.72
2022-10-19T02:29:50.893Z,151160.03
2022-10-19T02:32:18.764Z,151135.56
2022-10-19T02:34:47.927Z,151084.19
2022-10-19T02:37:15.784Z,151131.72
2022-10-19T02:39:43.718Z,151130.47
2022-10-19T02:42:15.952Z,151129.16
2022-10-19T02:44:49.665Z,151121.41
2022-10-19T02:47:22.056Z,151106.00
2022-10-19T02:49:53.006Z,151143.28
2022-10-19T02:52:20.934Z,151151.03
2022-10-19T02:54:49.132Z,151143.28
2022-10-19T02:57:19.552Z,151153.59
2022-10-19T02:59:47.881Z,151148.44
2022-10-19T03:02:16.612Z,151133.00
2022-10-19T03:04:44.718Z,151125.31
2022-10-19T03:07:15.705Z,151112.41
2022-10-19T03:09:43.631Z,151081.59
2022-10-19T03:12:11.903Z,151084.19
2022-10-19T03:14:39.684Z,151066.13
2022-10-19T03:17:07.625Z,151066.13
2022-10-19T03:19:36.401Z,151050.72
2022-10-19T03:22:05.029Z,151057.16
2022-10-19T03:24:34.404Z,151058.47
2022-10-19T03:27:02.054Z,151061.00
2022-10-19T03:29:29.850Z,151035.31
2022-10-19T03:31:57.592Z,151040.44
2022-10-19T03:34:25.351Z,151053.31
2022-10-19T03:36:53.516Z,151046.88
2022-10-19T03:39:21.255Z,151053.31
2022-10-19T03:41:50.472Z,151013.44
2022-10-19T03:44:18.251Z,150998.03
2022-10-19T03:46:46.026Z,151032.75
2022-10-19T03:49:13.768Z,150958.19
2022-10-19T03:51:41.505Z,151022.44
2022-10-19T03:54:13.107Z,151034.00
2022-10-19T03:56:40.798Z,151025.03
2022-10-19T03:59:14.143Z,150981.31
2022-10-19T04:01:43.740Z,151003.16
2022-10-19T04:04:14.764Z,151028.84
2022-10-19T04:06:44.908Z,151017.28
2022-10-19T04:09:14.939Z,151026.28
2022-10-19T04:11:43.293Z,151031.44
2022-10-19T04:14:19.237Z,151031.44
2022-10-19T04:16:54.922Z,150998.03
2022-10-19T04:19:22.560Z,151013.44
2022-10-19T04:21:50.925Z,150989.00
2022-10-19T04:24:19.952Z,151025.03
2022-10-19T04:26:49.049Z,151023.75
2022-10-19T04:29:20.128Z,151027.59
2022-10-19T04:31:50.013Z,151026.28
2022-10-19T04:34:18.847Z,151026.28
2022-10-19T04:36:46.559Z,151031.44
2022-10-19T04:39:14.288Z,151035.31
2022-10-19T04:41:42.062Z,151026.28
2022-10-19T04:44:10.733Z,151040.44
2022-10-19T04:46:39.805Z,151113.72
2022-10-19T04:49:07.703Z,151188.31
2022-10-19T04:51:35.627Z,151232.03
2022-10-19T04:54:04.035Z,151279.59
2022-10-19T04:56:32.349Z,151325.91
2022-10-19T04:59:01.576Z,151347.81
2022-10-19T05:01:31.709Z,151386.41
2022-10-19T05:04:02.596Z,151346.53
2022-10-19T05:06:31.094Z,151403.13
2022-10-19T05:08:59.116Z,151418.59
2022-10-19T05:11:27.304Z,151426.28
2022-10-19T05:13:55.136Z,151446.88
2022-10-19T05:16:24.535Z,151444.31
2022-10-19T05:18:56.107Z,151458.47
2022-10-19T05:21:27.120Z,151466.19
2022-10-19T05:23:56.028Z,151475.22
2022-10-19T05:26:25.213Z,151467.50
2022-10-19T05:28:56.845Z,151455.88
2022-10-19T05:31:26.423Z,151475.22
2022-10-19T05:33:56.096Z,151462.34
2022-10-19T05:36:27.462Z,151466.19
2022-10-19T05:38:57.344Z,151490.69
2022-10-19T05:41:26.345Z,151498.38
2022-10-19T05:43:55.138Z,151470.06
2022-10-19T05:46:23.120Z,151502.28
2022-10-19T05:48:50.816Z,151504.81
2022-10-19T05:51:21.054Z,151494.53
2022-10-19T05:53:50.528Z,151482.94
2022-10-19T05:56:20.387Z,151458.47
2022-10-19T05:58:48.616Z,151470.06
2022-10-19T06:01:18.912Z,151454.63
2022-10-19T06:03:46.986Z,151462.34
2022-10-19T06:06:14.787Z,151405.72
2022-10-19T06:08:42.563Z,151412.13
2022-10-19T06:11:13.739Z,151369.72
2022-10-19T06:13:42.244Z,151370.97
2022-10-19T06:16:11.834Z,151355.53
2022-10-19T06:18:39.530Z,151367.13
2022-10-19T06:21:09.332Z,151361.97
2022-10-19T06:23:37.474Z,151350.38
2022-10-19T06:26:08.231Z,151361.97
2022-10-19T06:28:38.400Z,151352.97
2022-10-19T06:31:08.565Z,151324.66
2022-10-19T06:33:37.495Z,151327.22
2022-10-19T06:36:08.752Z,151297.66
2022-10-19T06:38:36.468Z,151302.75
2022-10-19T06:41:04.943Z,151287.34
2022-10-19T06:43:32.827Z,151292.50
2022-10-19T06:46:05.223Z,151289.91
2022-10-19T06:48:33.031Z,151277.03
2022-10-19T06:51:01.879Z,151275.78
2022-10-19T06:53:30.299Z,151279.59
2022-10-19T06:55:59.431Z,151284.75
2022-10-19T06:58:27.338Z,151257.78
2022-10-19T07:00:58.621Z,151277.03
2022-10-19T07:03:29.289Z,151287.34
2022-10-19T07:05:58.388Z,151332.38
2022-10-19T07:08:27.287Z,151350.38
2022-10-19T07:10:56.403Z,151383.81
2022-10-19T07:13:24.572Z,151397.97
2022-10-19T07:15:58.388Z,151412.13
2022-10-19T07:18:27.800Z,151464.94
2022-10-19T07:20:56.592Z,151498.38
2022-10-19T07:23:25.200Z,151578.22
2022-10-19T07:25:53.930Z,151601.38
2022-10-19T07:28:22.579Z,151699.28
2022-10-19T07:30:50.279Z,151755.97
2022-10-19T07:35:46.939Z,151882.25
2022-10-19T07:38:14.584Z,151948.00
2022-10-19T07:40:44.927Z,151997.00
2022-10-19T07:43:15.874Z,152021.47
2022-10-19T07:45:43.598Z,152100.16
2022-10-19T07:48:11.418Z,152144.00
2022-10-19T07:50:39.267Z,152176.25
2022-10-19T07:53:08.445Z,152165.91
2022-10-19T07:55:36.187Z,152238.13
2022-10-19T07:58:03.850Z,152239.44
2022-10-19T08:00:31.705Z,152291.06
2022-10-19T08:03:43.238Z,152319.47
2022-10-19T08:05:47.314Z,152347.88
2022-10-19T08:08:16.399Z,152360.78
2022-10-19T08:10:44.261Z,152382.72
2022-10-19T08:13:12.047Z,152430.50
2022-10-19T08:15:39.808Z,152460.16
2022-10-19T08:18:07.526Z,152496.34
2022-10-19T08:20:35.369Z,152537.66
2022-10-19T08:23:03.210Z,152578.94
2022-10-19T08:25:32.344Z,152598.34
2022-10-19T08:27:59.980Z,152639.66
2022-10-19T08:30:27.845Z,152668.06
2022-10-19T08:32:55.670Z,152712.00
2022-10-19T08:35:23.542Z,152755.91
2022-10-19T08:37:51.700Z,152785.66
2022-10-19T08:40:24.828Z,152783.06
2022-10-19T08:42:59.223Z,152834.81
2022-10-19T08:48:23.600Z,152925.28
2022-10-19T08:50:51.400Z,152991.22
2022-10-19T08:53:25.385Z,153024.81
2022-10-19T08:56:05.401Z,153044.22
2022-10-19T08:58:54.657Z,153077.81
2022-10-19T09:01:37.550Z,153099.81
2022-10-19T09:04:11.383Z,153129.56
2022-10-19T09:06:49.876Z,153152.84
2022-10-19T09:09:20.985Z,153154.16
2022-10-19T09:11:52.295Z,153130.88
2022-10-19T09:14:27.063Z,153158.03
2022-10-19T09:16:57.934Z,153208.50
2022-10-19T09:19:30.852Z,153231.84
2022-10-19T09:22:03.047Z,153247.34
2022-10-19T09:24:37.150Z,153295.19
2022-10-19T09:27:07.006Z,153295.19
2022-10-19T09:29:42.521Z,153302.97
2022-10-19T09:32:15.648Z,153335.31
2022-10-19T09:34:47.528Z,153350.88
2022-10-19T09:37:23.226Z,153367.66
2022-10-19T09:39:54.858Z,153352.16
2022-10-19T09:42:25.850Z,153390.97
2022-10-19T09:44:56.432Z,153398.75
2022-10-19T09:47:35.257Z,153422.03
2022-10-19T09:50:19.040Z,153460.91
2022-10-19T09:52:47.908Z,153499.72
2022-10-19T09:55:27.484Z,153539.88
2022-10-19T09:58:02.368Z,153555.41
2022-10-19T10:00:37.127Z,153585.22
2022-10-19T10:03:06.077Z,153497.13
2022-10-19T10:05:35.974Z,153545.06
2022-10-19T10:08:04.079Z,153583.94
2022-10-19T10:10:38.490Z,153561.84
2022-10-19T10:13:07.086Z,153615.03
2022-10-19T10:15:44.930Z,153541.16
2022-10-19T10:18:16.590Z,153586.53
2022-10-19T10:20:58.474Z,153581.34
2022-10-19T10:23:28.346Z,153609.84
2022-10-19T10:25:57.943Z,153605.97
2022-10-19T10:28:27.570Z,153639.63
2022-10-19T10:31:02.233Z,153650.00
2022-10-19T10:33:46.094Z,153652.59
2022-10-19T10:36:14.311Z,153673.31
2022-10-19T10:38:46.015Z,153712.16
2022-10-19T10:41:17.661Z,153684.97
2022-10-19T10:43:53.524Z,153688.84
2022-10-19T10:46:28.241Z,153718.63
2022-10-19T10:48:59.313Z,153751.06
2022-10-19T10:51:34.257Z,153765.25
2022-10-19T10:54:16.069Z,153788.59
2022-10-19T10:56:45.219Z,153783.44
2022-10-19T10:59:20.536Z,153824.88
2022-10-19T11:02:04.086Z,153784.72
2022-10-19T11:04:36.917Z,153818.41
2022-10-19T11:07:17.694Z,153887.13
2022-10-19T11:09:50.718Z,153888.44
2022-10-19T11:12:25.129Z,153881.94
2022-10-19T11:14:58.770Z,153892.31
2022-10-19T11:17:30.952Z,153919.56
2022-10-19T11:19:58.644Z,153915.66
2022-10-19T11:22:30.734Z,153909.19
2022-10-19T11:25:16.958Z,153926.03
2022-10-19T11:27:54.930Z,153867.66
2022-10-19T11:30:24.990Z,153857.28
2022-10-19T11:33:07.041Z,153854.69
2022-10-19T11:35:46.861Z,153841.75
2022-10-19T11:38:49.505Z,153844.34
2022-10-19T11:41:27.042Z,153831.34
2022-10-19T11:44:17.348Z,153875.41
2022-10-19T11:46:55.954Z,153883.22
2022-10-19T11:49:41.875Z,153936.38
2022-10-19T11:52:17.795Z,154053.09
2022-10-19T11:54:59.349Z,154062.16
2022-10-19T11:57:32.321Z,154010.31
2022-10-19T12:00:14.741Z,154020.66
2022-10-19T12:03:02.828Z,154012.91
2022-10-19T12:05:40.172Z,153985.63
2022-10-19T12:08:23.016Z,153967.50
2022-10-19T12:11:01.965Z,153976.56
2022-10-19T12:13:42.928Z,153950.66
2022-10-19T12:16:12.857Z,154002.50
2022-10-19T12:18:42.919Z,153998.63
2022-10-19T12:21:20.821Z,153976.56
2022-10-19T12:23:49.891Z,154002.50
2022-10-19T12:26:19.768Z,154015.50
2022-10-19T12:28:50.592Z,154008.97
2022-10-19T12:31:19.637Z,154033.63
2022-10-19T12:33:51.705Z,153919.56
2022-10-19T12:36:30.063Z,153988.25
2022-10-19T12:39:03.872Z,153950.66
2022-10-19T12:41:39.161Z,153984.38
2022-10-19T12:44:22.421Z,154067.31
2022-10-19T12:46:53.823Z,154064.78
2022-10-19T12:49:48.853Z,154134.78
2022-10-19T12:52:37.266Z,154207.47
2022-10-19T12:55:14.057Z,154224.28
2022-10-19T12:57:47.925Z,154208.75
2022-10-19T13:00:22.311Z,154235.97
2022-10-19T13:02:59.379Z,154269.72
2022-10-19T13:05:29.679Z,154286.59
2022-10-19T13:08:02.108Z,154348.84
2022-10-19T13:10:33.346Z,154344.97
2022-10-19T13:13:03.095Z,154400.78
2022-10-19T13:15:51.844Z,154442.28
2022-10-19T13:19:07.612Z,154470.91
2022-10-19T13:21:46.802Z,154454.03
2022-10-19T13:24:28.331Z,154498.19
2022-10-19T13:27:35.793Z,154499.47
2022-10-19T13:30:03.800Z,154370.94
2022-10-19T13:32:42.888Z,154344.97
2022-10-19T13:35:31.386Z,154396.91
2022-10-19T13:38:26.205Z,154390.41
2022-10-19T13:41:05.379Z,154430.59
2022-10-19T13:43:35.743Z,154418.94
2022-10-19T13:46:11.825Z,154425.47
2022-10-19T13:49:07.250Z,154422.84
2022-10-19T13:51:44.396Z,154405.97
2022-10-19T13:54:26.230Z,154356.66
2022-10-19T13:57:10.396Z,154352.78
2022-10-19T14:00:03.273Z,154370.94
2022-10-19T14:02:56.084Z,154376.13
2022-10-19T14:05:53.631Z,154380.00
2022-10-19T14:08:37.065Z,154380.00
2022-10-19T14:11:07.600Z,154376.13
2022-10-19T14:13:36.820Z,154376.13
2022-10-19T14:16:04.949Z,154467.03
2022-10-19T14:18:34.685Z,154368.34
2022-10-19T14:21:04.239Z,154298.28
2022-10-19T14:23:34.200Z,154258.03
2022-10-19T14:26:04.342Z,154259.31
2022-10-19T14:28:33.239Z,154243.78
2022-10-19T14:31:05.096Z,154203.56
2022-10-19T14:33:35.258Z,154150.34
2022-10-19T14:36:03.804Z,154114.06
2022-10-19T14:38:36.612Z,154112.72
2022-10-19T14:41:05.679Z,154049.19
2022-10-19T14:43:35.450Z,154069.91
2022-10-19T14:46:16.204Z,154008.97
2022-10-19T14:48:46.315Z,153986.97
2022-10-19T14:51:29.684Z,153970.09
2022-10-19T14:54:02.309Z,153961.03
2022-10-19T14:56:34.667Z,153950.66
2022-10-19T14:59:06.018Z,153931.22
2022-10-19T15:01:36.650Z,153941.56
2022-10-19T15:04:05.293Z,153867.66
2022-10-19T15:06:35.731Z,153844.34
2022-10-19T15:09:12.093Z,153846.94
2022-10-19T15:11:49.866Z,153828.75
2022-10-19T15:14:21.833Z,153840.44
2022-10-19T15:16:54.966Z,153813.22
2022-10-19T15:19:29.407Z,153796.38
2022-10-19T15:22:15.719Z,153727.75
2022-10-19T15:24:59.540Z,153744.53
2022-10-19T15:27:32.980Z,153714.75
2022-10-19T15:30:02.767Z,153710.88
2022-10-19T15:32:37.865Z,153704.38
2022-10-19T15:35:17.441Z,153670.72
2022-10-19T15:37:46.654Z,153681.06
2022-10-19T15:40:21.647Z,153629.28
2022-10-19T15:42:49.408Z,153612.44
2022-10-19T15:45:35.939Z,153635.75
2022-10-19T15:48:28.589Z,153568.41
2022-10-19T15:50:57.915Z,153571.00
2022-10-19T15:53:26.248Z,153564.50
2022-10-19T15:55:54.058Z,153543.75
2022-10-19T15:58:21.701Z,153548.94
2022-10-19T16:00:49.498Z,153523.03
2022-10-19T16:03:17.372Z,153494.53
2022-10-19T16:05:47.151Z,153440.16
2022-10-19T16:08:14.856Z,153445.34
2022-10-19T16:10:42.517Z,153409.13
2022-10-19T16:13:10.118Z,153378.03
2022-10-19T16:15:37.903Z,153374.19
2022-10-19T16:18:05.479Z,153357.34
2022-10-19T16:20:33.270Z,153362.53
2022-10-19T16:23:02.370Z,153350.88
2022-10-19T16:25:30.133Z,153321.06
2022-10-19T16:27:57.901Z,153300.38
2022-10-19T16:30:25.603Z,153255.13
2022-10-19T16:32:53.296Z,153235.69
2022-10-19T16:35:21.055Z,153227.94
2022-10-19T16:37:48.842Z,153189.09
2022-10-19T16:40:18.255Z,153196.88
2022-10-19T16:42:46.016Z,153150.25
2022-10-19T16:45:13.828Z,153165.81
2022-10-19T16:47:41.673Z,153152.84
2022-10-19T16:50:11.329Z,153088.19
2022-10-19T16:52:39.165Z,153111.47
2022-10-19T16:55:08.270Z,153106.28
2022-10-19T16:57:37.483Z,153064.91
2022-10-19T17:00:09.414Z,153086.91
2022-10-19T17:02:41.831Z,153061.03
2022-10-19T17:05:12.177Z,153028.72
2022-10-19T17:07:40.022Z,153013.19
2022-10-19T17:10:08.464Z,153022.22
2022-10-19T17:12:40.762Z,152995.09
2022-10-19T17:15:40.856Z,152989.91
2022-10-19T17:17:58.078Z,152980.88
2022-10-19T17:20:25.808Z,152953.72
2022-10-19T17:22:53.781Z,152934.31
2022-10-19T17:25:21.584Z,152872.31
2022-10-19T17:27:52.968Z,152942.09
2022-10-19T17:30:21.003Z,152903.28
2022-10-19T17:32:48.738Z,152945.97
2022-10-19T17:35:16.461Z,152921.38
2022-10-19T17:37:44.121Z,152895.56
2022-10-19T17:40:12.769Z,152889.06
2022-10-19T17:42:40.441Z,152872.31
2022-10-19T17:45:11.078Z,152838.69
2022-10-19T17:47:38.760Z,152832.22
2022-10-19T17:50:07.340Z,152815.41
2022-10-19T17:52:35.036Z,152828.31
2022-10-19T17:55:18.247Z,152820.59
2022-10-19T17:57:46.091Z,152789.53
2022-10-19T18:00:15.937Z,152785.66
2022-10-19T18:02:45.683Z,152811.56
2022-10-19T18:05:13.613Z,152779.16
2022-10-19T18:07:43.459Z,152795.97
2022-10-19T18:10:11.200Z,152767.53
2022-10-19T18:12:39.149Z,152713.31
2022-10-19T18:15:07.464Z,152744.28
2022-10-19T18:17:36.997Z,152741.69
2022-10-19T18:20:05.923Z,152700.38
2022-10-19T18:22:33.600Z,152671.94
2022-10-19T18:25:01.262Z,152710.72
2022-10-19T18:27:28.896Z,152692.59
2022-10-19T18:29:56.575Z,152691.31
2022-10-19T18:32:24.371Z,152675.84
2022-10-19T18:34:53.565Z,152617.72
2022-10-19T18:37:21.273Z,152633.22
2022-10-19T18:39:48.963Z,152599.59
2022-10-19T18:42:17.825Z,152628.03
2022-10-19T18:44:47.305Z,152625.44
2022-10-19T18:47:15.044Z,152604.78
2022-10-19T18:49:42.696Z,152586.72
2022-10-19T18:52:11.865Z,152562.16
2022-10-19T18:54:39.790Z,152576.38
2022-10-19T18:57:07.565Z,152545.41
2022-10-19T18:59:35.303Z,152541.50
2022-10-19T19:02:03.074Z,152551.84
2022-10-19T19:04:31.112Z,152529.88
2022-10-19T19:06:58.787Z,152549.25
2022-10-19T19:09:27.814Z,152546.69
2022-10-19T19:11:58.030Z,152538.91
2022-10-19T19:14:26.594Z,152480.81
2022-10-19T19:16:54.380Z,152496.34
2022-10-19T19:19:24.412Z,152493.75
2022-10-19T19:21:52.222Z,152483.41
2022-10-19T19:24:21.883Z,152439.53
2022-10-19T19:26:52.702Z,152429.16
2022-10-19T19:29:22.045Z,152371.09
2022-10-19T19:31:49.810Z,152325.91
2022-10-19T19:34:17.721Z,152307.81
2022-10-19T19:36:48.053Z,152282.03
2022-10-19T19:39:18.554Z,152234.28
2022-10-19T19:41:46.812Z,152249.75
2022-10-19T19:44:15.954Z,152243.31
2022-10-19T19:46:43.696Z,152213.66
2022-10-19T19:49:11.920Z,152163.34
2022-10-19T19:51:39.625Z,152187.84
2022-10-19T19:54:07.258Z,152178.81
2022-10-19T19:56:36.761Z,152160.78
2022-10-19T19:59:04.499Z,152181.41
2022-10-19T20:01:34.365Z,152174.97
2022-10-19T20:06:37.439Z,152189.13
2022-10-19T20:09:06.297Z,152202.03
2022-10-19T20:11:37.156Z,152234.28
2022-10-19T20:14:07.451Z,152221.41
2022-10-19T20:16:36.983Z,152198.19
2022-10-19T20:19:07.549Z,152200.72
2022-10-19T20:21:35.428Z,152182.66
2022-10-19T20:24:03.247Z,152160.78
2022-10-19T20:26:31.218Z,152145.25
2022-10-19T20:28:59.486Z,152122.06
2022-10-19T20:33:57.457Z,152094.97
2022-10-19T20:36:26.970Z,152083.38
2022-10-19T20:38:56.298Z,152021.47
2022-10-19T20:41:26.419Z,152048.56
2022-10-19T20:43:54.970Z,152065.34
2022-10-19T20:46:24.347Z,152052.41
2022-10-19T20:48:52.998Z,152043.41
2022-10-19T20:51:27.522Z,152052.41
2022-10-19T20:53:59.934Z,152048.56
2022-10-19T20:56:29.016Z,152070.47
2022-10-19T20:58:57.907Z,152044.66
2022-10-19T21:01:26.158Z,152057.59
2022-10-19T21:03:56.587Z,152029.22
2022-10-19T21:06:27.017Z,152040.81
2022-10-19T21:08:54.814Z,152016.34
2022-10-19T21:11:24.372Z,152015.03
2022-10-19T21:13:54.496Z,151980.22
2022-10-19T21:16:24.451Z,151942.84
2022-10-19T21:18:52.311Z,151904.19
2022-10-19T21:21:22.263Z,151949.25
2022-10-19T21:23:54.152Z,151955.75
2022-10-19T21:26:22.053Z,151978.94
2022-10-19T21:28:53.000Z,151981.53
2022-10-19T21:31:21.798Z,151978.94
2022-10-19T21:33:50.814Z,151981.53
2022-10-19T21:36:19.806Z,151980.22
2022-10-19T21:38:48.345Z,151980.22
2022-10-19T21:41:22.280Z,151978.94
2022-10-19T21:43:53.318Z,151978.94
2022-10-19T21:46:22.731Z,151968.63
2022-10-19T21:48:50.710Z,151960.88
2022-10-19T21:51:24.968Z,151959.59
2022-10-19T21:53:52.760Z,151948.00
2022-10-19T21:56:21.851Z,151975.06
2022-10-19T21:58:50.684Z,151990.56
2022-10-19T22:01:20.070Z,151980.22
2022-10-19T22:03:47.922Z,151910.63
2022-10-19T22:06:15.870Z,151958.34
2022-10-19T22:08:49.193Z,151971.19
2022-10-19T22:11:17.053Z,151973.78
2022-10-19T22:13:46.534Z,151969.94
2022-10-19T22:16:16.204Z,151951.84
2022-10-19T22:18:43.902Z,151958.34
2022-10-19T22:21:14.395Z,151927.38
2022-10-19T22:23:42.534Z,151951.84
2022-10-19T22:26:14.987Z,151968.63
2022-10-19T22:28:43.082Z,151941.56
2022-10-19T22:31:13.329Z,151945.41
2022-10-19T22:33:41.691Z,151933.81
2022-10-19T22:36:11.279Z,151915.78
2022-10-19T22:38:38.956Z,151918.38
2022-10-19T22:41:06.671Z,151927.38
2022-10-19T22:43:34.475Z,151932.56
2022-10-19T22:46:02.267Z,151926.06
2022-10-19T22:48:31.327Z,151922.22
2022-10-19T22:50:58.973Z,151918.38
2022-10-19T22:53:26.791Z,151911.88
2022-10-19T22:55:54.516Z,151917.06
2022-10-19T22:58:22.285Z,151911.88
2022-10-19T23:01:03.457Z,151915.78
2022-10-19T23:03:32.851Z,151910.63
2022-10-19T23:06:00.574Z,151905.44
2022-10-19T23:08:29.157Z,151902.88
2022-10-19T23:10:57.045Z,151891.28
2022-10-19T23:13:25.262Z,151886.16
2022-10-19T23:15:52.960Z,151892.59
2022-10-19T23:18:20.765Z,151890.00
2022-10-19T23:20:57.395Z,151882.25
2022-10-19T23:23:25.725Z,151860.38
2022-10-19T23:26:01.451Z,151864.22
2022-10-19T23:28:29.567Z,151865.50
2022-10-19T23:30:58.485Z,151862.97
2022-10-19T23:33:27.107Z,151835.88
2022-10-19T23:35:56.147Z,151830.69
2022-10-19T23:38:23.896Z,151830.69
2022-10-19T23:40:51.639Z,151814.00
2022-10-19T23:43:19.422Z,151797.22
2022-10-19T23:45:47.068Z,151721.19
2022-10-19T23:48:14.777Z,151718.66
2022-10-19T23:50:42.576Z,151704.44
2022-10-19T23:53:11.703Z,151723.78
2022-10-19T23:55:39.536Z,151761.13
2022-10-19T23:58:07.323Z,151727.66
